sensor_id;sensor_type;location;lat;lon;timestamp;P1;durP1;ratioP1;P2;durP2;ratioP2
5058;SDS011;2548;52.050;11.036;2023-07-31T00:01:44;4.63;;;2.17;;
5058;SDS011;2548;52.050;11.036;2023-07-31T00:04:13;6.95;;;2.35;;
5058;SDS011;2548;52.050;11.036;2023-07-31T00:06:40;12.02;;;2.50;;
5058;SDS011;2548;52.050;11.036;2023-07-31T00:09:08;2.85;;;2.08;;
5058;SDS011;2548;52.050;11.036;2023-07-31T00:11:35;7.22;;;2.58;;
5058;SDS011;2548;52.050;11.036;2023-07-31T00:14:02;3.55;;;1.80;;
5058;SDS011;2548;52.050;11.036;2023-07-31T00:16:30;2.90;;;2.10;;
5058;SDS011;2548;52.050;11.036;2023-07-31T00:18:57;10.23;;;3.60;;
5058;SDS011;2548;52.050;11.036;2023-07-31T00:21:26;4.35;;;2.80;;
5058;SDS011;2548;52.050;11.036;2023-07-31T00:23:54;5.43;;;2.80;;
5058;SDS011;2548;52.050;11.036;2023-07-31T00:26:21;7.00;;;3.10;;
5058;SDS011;2548;52.050;11.036;2023-07-31T00:28:49;4.03;;;2.35;;
5058;SDS011;2548;52.050;11.036;2023-07-31T00:31:16;2.43;;;1.93;;
5058;SDS011;2548;52.050;11.036;2023-07-31T00:33:43;6.45;;;2.50;;
5058;SDS011;2548;52.050;11.036;2023-07-31T00:36:11;5.65;;;2.05;;
5058;SDS011;2548;52.050;11.036;2023-07-31T00:38:39;3.17;;;1.70;;
5058;SDS011;2548;52.050;11.036;2023-07-31T00:41:07;5.37;;;2.63;;
5058;SDS011;2548;52.050;11.036;2023-07-31T00:43:34;5.45;;;2.20;;
5058;SDS011;2548;52.050;11.036;2023-07-31T00:46:02;7.80;;;2.10;;
5058;SDS011;2548;52.050;11.036;2023-07-31T00:48:29;3.17;;;2.20;;
5058;SDS011;2548;52.050;11.036;2023-07-31T00:50:57;6.28;;;2.50;;
5058;SDS011;2548;52.050;11.036;2023-07-31T00:53:24;2.60;;;1.90;;
5058;SDS011;2548;52.050;11.036;2023-07-31T00:55:53;3.40;;;2.53;;
5058;SDS011;2548;52.050;11.036;2023-07-31T00:58:21;4.40;;;2.20;;
5058;SDS011;2548;52.050;11.036;2023-07-31T01:00:48;4.20;;;2.20;;
5058;SDS011;2548;52.050;11.036;2023-07-31T01:03:17;3.10;;;2.00;;
5058;SDS011;2548;52.050;11.036;2023-07-31T01:05:47;2.42;;;2.22;;
5058;SDS011;2548;52.050;11.036;2023-07-31T01:08:24;3.13;;;2.40;;
5058;SDS011;2548;52.050;11.036;2023-07-31T01:10:59;5.30;;;1.73;;
5058;SDS011;2548;52.050;11.036;2023-07-31T01:13:32;5.37;;;1.63;;
5058;SDS011;2548;52.050;11.036;2023-07-31T01:16:00;2.95;;;1.98;;
5058;SDS011;2548;52.050;11.036;2023-07-31T01:18:27;4.40;;;2.10;;
5058;SDS011;2548;52.050;11.036;2023-07-31T01:20:57;3.83;;;2.13;;
5058;SDS011;2548;52.050;11.036;2023-07-31T01:23:36;1.67;;;1.43;;
5058;SDS011;2548;52.050;11.036;2023-07-31T01:26:36;3.43;;;2.13;;
5058;SDS011;2548;52.050;11.036;2023-07-31T01:29:07;3.10;;;1.92;;
5058;SDS011;2548;52.050;11.036;2023-07-31T01:31:41;11.73;;;2.25;;
5058;SDS011;2548;52.050;11.036;2023-07-31T01:34:13;4.93;;;2.20;;
5058;SDS011;2548;52.050;11.036;2023-07-31T01:36:42;4.27;;;2.00;;
5058;SDS011;2548;52.050;11.036;2023-07-31T01:39:10;2.07;;;1.87;;
5058;SDS011;2548;52.050;11.036;2023-07-31T01:41:39;2.08;;;1.52;;
5058;SDS011;2548;52.050;11.036;2023-07-31T01:44:06;3.50;;;1.90;;
5058;SDS011;2548;52.050;11.036;2023-07-31T01:46:34;3.77;;;2.00;;
5058;SDS011;2548;52.050;11.036;2023-07-31T01:49:02;10.37;;;2.33;;
5058;SDS011;2548;52.050;11.036;2023-07-31T01:51:31;4.93;;;1.83;;
5058;SDS011;2548;52.050;11.036;2023-07-31T01:53:59;2.83;;;1.90;;
5058;SDS011;2548;52.050;11.036;2023-07-31T01:56:27;2.17;;;1.63;;
5058;SDS011;2548;52.050;11.036;2023-07-31T01:58:56;2.15;;;1.80;;
5058;SDS011;2548;52.050;11.036;2023-07-31T02:01:23;3.70;;;2.00;;
5058;SDS011;2548;52.050;11.036;2023-07-31T02:03:51;17.80;;;1.80;;
5058;SDS011;2548;52.050;11.036;2023-07-31T02:06:18;2.87;;;2.07;;
5058;SDS011;2548;52.050;11.036;2023-07-31T02:08:45;3.80;;;2.07;;
5058;SDS011;2548;52.050;11.036;2023-07-31T02:11:13;5.65;;;1.65;;
5058;SDS011;2548;52.050;11.036;2023-07-31T02:13:40;2.23;;;2.03;;
5058;SDS011;2548;52.050;11.036;2023-07-31T02:16:09;4.13;;;1.50;;
5058;SDS011;2548;52.050;11.036;2023-07-31T02:18:37;1.93;;;1.70;;
5058;SDS011;2548;52.050;11.036;2023-07-31T02:21:04;1.23;;;1.13;;
5058;SDS011;2548;52.050;11.036;2023-07-31T02:23:32;3.23;;;2.00;;
5058;SDS011;2548;52.050;11.036;2023-07-31T02:25:59;1.63;;;1.43;;
5058;SDS011;2548;52.050;11.036;2023-07-31T02:28:28;1.20;;;1.10;;
5058;SDS011;2548;52.050;11.036;2023-07-31T02:30:56;6.30;;;1.20;;
5058;SDS011;2548;52.050;11.036;2023-07-31T02:33:25;1.75;;;1.50;;
5058;SDS011;2548;52.050;11.036;2023-07-31T02:35:52;1.40;;;1.20;;
5058;SDS011;2548;52.050;11.036;2023-07-31T02:38:21;2.10;;;1.50;;
5058;SDS011;2548;52.050;11.036;2023-07-31T02:40:49;1.50;;;1.40;;
5058;SDS011;2548;52.050;11.036;2023-07-31T02:43:17;2.15;;;1.40;;
5058;SDS011;2548;52.050;11.036;2023-07-31T02:45:44;1.15;;;1.15;;
5058;SDS011;2548;52.050;11.036;2023-07-31T02:48:11;1.23;;;1.23;;
5058;SDS011;2548;52.050;11.036;2023-07-31T02:50:40;2.25;;;1.70;;
5058;SDS011;2548;52.050;11.036;2023-07-31T02:53:08;3.07;;;1.73;;
5058;SDS011;2548;52.050;11.036;2023-07-31T02:55:35;1.90;;;1.80;;
5058;SDS011;2548;52.050;11.036;2023-07-31T02:58:03;3.93;;;1.70;;
5058;SDS011;2548;52.050;11.036;2023-07-31T03:00:30;2.13;;;1.48;;
5058;SDS011;2548;52.050;11.036;2023-07-31T03:02:57;2.30;;;2.00;;
5058;SDS011;2548;52.050;11.036;2023-07-31T03:05:25;1.63;;;1.53;;
5058;SDS011;2548;52.050;11.036;2023-07-31T03:07:54;2.38;;;1.60;;
5058;SDS011;2548;52.050;11.036;2023-07-31T03:10:23;2.63;;;2.00;;
5058;SDS011;2548;52.050;11.036;2023-07-31T03:12:50;2.20;;;1.33;;
5058;SDS011;2548;52.050;11.036;2023-07-31T03:15:18;2.20;;;1.40;;
5058;SDS011;2548;52.050;11.036;2023-07-31T03:17:45;3.70;;;2.17;;
5058;SDS011;2548;52.050;11.036;2023-07-31T03:20:13;2.67;;;1.92;;
5058;SDS011;2548;52.050;11.036;2023-07-31T03:22:41;1.38;;;1.27;;
5058;SDS011;2548;52.050;11.036;2023-07-31T03:25:10;1.50;;;1.40;;
5058;SDS011;2548;52.050;11.036;2023-07-31T03:27:38;1.42;;;1.13;;
5058;SDS011;2548;52.050;11.036;2023-07-31T03:30:06;2.33;;;2.13;;
5058;SDS011;2548;52.050;11.036;2023-07-31T03:32:34;7.18;;;1.35;;
5058;SDS011;2548;52.050;11.036;2023-07-31T03:35:01;3.58;;;1.90;;
5058;SDS011;2548;52.050;11.036;2023-07-31T03:37:31;1.75;;;1.65;;
5058;SDS011;2548;52.050;11.036;2023-07-31T03:39:58;3.17;;;1.58;;
5058;SDS011;2548;52.050;11.036;2023-07-31T03:42:27;1.37;;;1.27;;
5058;SDS011;2548;52.050;11.036;2023-07-31T03:44:54;1.77;;;1.35;;
5058;SDS011;2548;52.050;11.036;2023-07-31T03:47:22;1.87;;;1.70;;
5058;SDS011;2548;52.050;11.036;2023-07-31T03:49:49;3.97;;;1.50;;
5058;SDS011;2548;52.050;11.036;2023-07-31T03:52:16;2.63;;;1.40;;
5058;SDS011;2548;52.050;11.036;2023-07-31T03:54:44;1.38;;;1.27;;
5058;SDS011;2548;52.050;11.036;2023-07-31T03:57:11;4.30;;;1.20;;
5058;SDS011;2548;52.050;11.036;2023-07-31T03:59:40;1.45;;;1.10;;
5058;SDS011;2548;52.050;11.036;2023-07-31T04:02:07;5.38;;;1.60;;
5058;SDS011;2548;52.050;11.036;2023-07-31T04:04:35;1.30;;;1.20;;
5058;SDS011;2548;52.050;11.036;2023-07-31T04:07:02;1.13;;;1.00;;
5058;SDS011;2548;52.050;11.036;2023-07-31T04:09:30;1.65;;;1.40;;
5058;SDS011;2548;52.050;11.036;2023-07-31T04:11:57;1.45;;;1.45;;
5058;SDS011;2548;52.050;11.036;2023-07-31T04:14:24;1.20;;;1.03;;
5058;SDS011;2548;52.050;11.036;2023-07-31T04:16:53;1.20;;;1.10;;
5058;SDS011;2548;52.050;11.036;2023-07-31T04:19:21;1.77;;;0.98;;
5058;SDS011;2548;52.050;11.036;2023-07-31T04:21:48;2.38;;;1.10;;
5058;SDS011;2548;52.050;11.036;2023-07-31T04:24:15;1.05;;;1.05;;
5058;SDS011;2548;52.050;11.036;2023-07-31T04:26:49;0.93;;;0.93;;
5058;SDS011;2548;52.050;11.036;2023-07-31T04:29:17;1.13;;;1.00;;
5058;SDS011;2548;52.050;11.036;2023-07-31T04:31:44;1.38;;;1.25;;
5058;SDS011;2548;52.050;11.036;2023-07-31T04:34:13;7.00;;;1.60;;
5058;SDS011;2548;52.050;11.036;2023-07-31T04:36:41;2.15;;;1.00;;
5058;SDS011;2548;52.050;11.036;2023-07-31T04:39:08;2.65;;;1.50;;
5058;SDS011;2548;52.050;11.036;2023-07-31T04:41:35;1.98;;;0.80;;
5058;SDS011;2548;52.050;11.036;2023-07-31T04:44:03;1.15;;;1.05;;
5058;SDS011;2548;52.050;11.036;2023-07-31T04:46:30;1.47;;;0.93;;
5058;SDS011;2548;52.050;11.036;2023-07-31T04:48:58;3.55;;;1.08;;
5058;SDS011;2548;52.050;11.036;2023-07-31T04:51:27;0.90;;;0.90;;
5058;SDS011;2548;52.050;11.036;2023-07-31T04:53:54;1.35;;;1.25;;
5058;SDS011;2548;52.050;11.036;2023-07-31T04:56:22;2.90;;;1.10;;
5058;SDS011;2548;52.050;11.036;2023-07-31T04:58:50;1.20;;;1.10;;
5058;SDS011;2548;52.050;11.036;2023-07-31T05:01:17;0.90;;;0.90;;
5058;SDS011;2548;52.050;11.036;2023-07-31T05:03:44;1.08;;;0.98;;
5058;SDS011;2548;52.050;11.036;2023-07-31T05:06:12;1.17;;;1.08;;
5058;SDS011;2548;52.050;11.036;2023-07-31T05:08:42;1.17;;;1.08;;
5058;SDS011;2548;52.050;11.036;2023-07-31T05:11:09;2.17;;;1.00;;
5058;SDS011;2548;52.050;11.036;2023-07-31T05:13:37;1.33;;;1.13;;
5058;SDS011;2548;52.050;11.036;2023-07-31T05:16:04;1.07;;;0.90;;
5058;SDS011;2548;52.050;11.036;2023-07-31T05:18:32;1.70;;;0.80;;
5058;SDS011;2548;52.050;11.036;2023-07-31T05:20:59;0.70;;;0.70;;
5058;SDS011;2548;52.050;11.036;2023-07-31T05:23:26;1.02;;;0.80;;
5058;SDS011;2548;52.050;11.036;2023-07-31T05:25:55;1.60;;;0.80;;
5058;SDS011;2548;52.050;11.036;2023-07-31T05:28:28;0.90;;;0.90;;
5058;SDS011;2548;52.050;11.036;2023-07-31T05:30:58;1.88;;;1.00;;
5058;SDS011;2548;52.050;11.036;2023-07-31T05:33:26;5.10;;;1.17;;
5058;SDS011;2548;52.050;11.036;2023-07-31T05:35:54;0.95;;;0.95;;
5058;SDS011;2548;52.050;11.036;2023-07-31T05:38:22;2.45;;;1.23;;
5058;SDS011;2548;52.050;11.036;2023-07-31T05:40:49;1.33;;;1.08;;
5058;SDS011;2548;52.050;11.036;2023-07-31T05:43:18;1.48;;;1.38;;
5058;SDS011;2548;52.050;11.036;2023-07-31T05:45:45;1.25;;;1.15;;
5058;SDS011;2548;52.050;11.036;2023-07-31T05:48:13;1.13;;;1.02;;
5058;SDS011;2548;52.050;11.036;2023-07-31T05:50:40;1.48;;;1.38;;
5058;SDS011;2548;52.050;11.036;2023-07-31T05:53:08;1.00;;;1.00;;
5058;SDS011;2548;52.050;11.036;2023-07-31T05:55:36;0.77;;;0.77;;
5058;SDS011;2548;52.050;11.036;2023-07-31T05:58:03;1.60;;;1.30;;
5058;SDS011;2548;52.050;11.036;2023-07-31T06:00:32;0.93;;;0.93;;
5058;SDS011;2548;52.050;11.036;2023-07-31T06:02:59;1.15;;;1.02;;
5058;SDS011;2548;52.050;11.036;2023-07-31T06:05:27;1.17;;;1.10;;
5058;SDS011;2548;52.050;11.036;2023-07-31T06:07:55;1.38;;;1.05;;
5058;SDS011;2548;52.050;11.036;2023-07-31T06:10:23;0.98;;;0.98;;
5058;SDS011;2548;52.050;11.036;2023-07-31T06:12:51;0.95;;;0.95;;
5058;SDS011;2548;52.050;11.036;2023-07-31T06:15:19;0.80;;;0.80;;
5058;SDS011;2548;52.050;11.036;2023-07-31T06:17:48;0.97;;;0.93;;
5058;SDS011;2548;52.050;11.036;2023-07-31T06:20:15;0.95;;;0.95;;
5058;SDS011;2548;52.050;11.036;2023-07-31T06:22:43;1.88;;;0.98;;
5058;SDS011;2548;52.050;11.036;2023-07-31T06:25:11;2.10;;;1.20;;
5058;SDS011;2548;52.050;11.036;2023-07-31T06:27:39;0.93;;;0.80;;
5058;SDS011;2548;52.050;11.036;2023-07-31T06:30:06;0.80;;;0.80;;
5058;SDS011;2548;52.050;11.036;2023-07-31T06:32:34;1.00;;;1.00;;
5058;SDS011;2548;52.050;11.036;2023-07-31T06:35:03;2.30;;;1.23;;
5058;SDS011;2548;52.050;11.036;2023-07-31T06:37:31;2.13;;;0.90;;
5058;SDS011;2548;52.050;11.036;2023-07-31T06:39:59;0.80;;;0.70;;
5058;SDS011;2548;52.050;11.036;2023-07-31T06:42:26;1.15;;;1.05;;
5058;SDS011;2548;52.050;11.036;2023-07-31T06:44:54;0.88;;;0.88;;
5058;SDS011;2548;52.050;11.036;2023-07-31T06:47:21;1.05;;;1.05;;
5058;SDS011;2548;52.050;11.036;2023-07-31T06:49:48;1.00;;;1.00;;
5058;SDS011;2548;52.050;11.036;2023-07-31T06:52:17;0.68;;;0.68;;
5058;SDS011;2548;52.050;11.036;2023-07-31T06:54:59;0.80;;;0.80;;
5058;SDS011;2548;52.050;11.036;2023-07-31T06:57:28;0.70;;;0.70;;
5058;SDS011;2548;52.050;11.036;2023-07-31T06:59:56;1.07;;;0.80;;
5058;SDS011;2548;52.050;11.036;2023-07-31T07:02:23;0.93;;;0.93;;
5058;SDS011;2548;52.050;11.036;2023-07-31T07:04:51;1.98;;;1.67;;
5058;SDS011;2548;52.050;11.036;2023-07-31T07:07:20;2.00;;;1.45;;
5058;SDS011;2548;52.050;11.036;2023-07-31T07:09:47;4.20;;;1.60;;
5058;SDS011;2548;52.050;11.036;2023-07-31T07:12:14;3.28;;;2.97;;
5058;SDS011;2548;52.050;11.036;2023-07-31T07:14:42;8.27;;;2.80;;
5058;SDS011;2548;52.050;11.036;2023-07-31T07:17:11;7.47;;;2.97;;
5058;SDS011;2548;52.050;11.036;2023-07-31T07:19:40;3.08;;;2.78;;
5058;SDS011;2548;52.050;11.036;2023-07-31T07:22:07;3.17;;;2.43;;
5058;SDS011;2548;52.050;11.036;2023-07-31T07:24:36;9.05;;;4.00;;
5058;SDS011;2548;52.050;11.036;2023-07-31T07:27:04;3.47;;;3.20;;
5058;SDS011;2548;52.050;11.036;2023-07-31T07:29:33;6.82;;;3.95;;
5058;SDS011;2548;52.050;11.036;2023-07-31T07:32:01;4.28;;;3.85;;
5058;SDS011;2548;52.050;11.036;2023-07-31T07:34:28;6.60;;;4.47;;
5058;SDS011;2548;52.050;11.036;2023-07-31T07:36:56;9.90;;;4.85;;
5058;SDS011;2548;52.050;11.036;2023-07-31T07:39:23;8.30;;;4.37;;
5058;SDS011;2548;52.050;11.036;2023-07-31T07:41:52;7.27;;;5.10;;
5058;SDS011;2548;52.050;11.036;2023-07-31T07:44:20;8.37;;;5.00;;
5058;SDS011;2548;52.050;11.036;2023-07-31T07:46:47;5.85;;;4.80;;
5058;SDS011;2548;52.050;11.036;2023-07-31T07:49:15;9.25;;;4.88;;
5058;SDS011;2548;52.050;11.036;2023-07-31T07:51:42;12.73;;;5.78;;
5058;SDS011;2548;52.050;11.036;2023-07-31T07:54:09;11.98;;;5.93;;
5058;SDS011;2548;52.050;11.036;2023-07-31T07:56:37;7.35;;;4.82;;
5058;SDS011;2548;52.050;11.036;2023-07-31T07:59:06;8.93;;;4.40;;
5058;SDS011;2548;52.050;11.036;2023-07-31T08:01:33;8.57;;;5.20;;
5058;SDS011;2548;52.050;11.036;2023-07-31T08:04:01;9.00;;;4.70;;
5058;SDS011;2548;52.050;11.036;2023-07-31T08:06:28;6.55;;;4.20;;
5058;SDS011;2548;52.050;11.036;2023-07-31T08:08:56;6.30;;;4.68;;
5058;SDS011;2548;52.050;11.036;2023-07-31T08:11:23;5.20;;;4.33;;
5058;SDS011;2548;52.050;11.036;2023-07-31T08:13:51;5.60;;;4.00;;
5058;SDS011;2548;52.050;11.036;2023-07-31T08:16:20;5.90;;;4.10;;
5058;SDS011;2548;52.050;11.036;2023-07-31T08:18:47;10.95;;;4.75;;
5058;SDS011;2548;52.050;11.036;2023-07-31T08:21:15;7.40;;;4.80;;
5058;SDS011;2548;52.050;11.036;2023-07-31T08:23:42;7.47;;;4.23;;
5058;SDS011;2548;52.050;11.036;2023-07-31T08:26:14;7.22;;;4.65;;
5058;SDS011;2548;52.050;11.036;2023-07-31T08:28:41;7.63;;;4.23;;
5058;SDS011;2548;52.050;11.036;2023-07-31T08:31:09;12.80;;;4.93;;
5058;SDS011;2548;52.050;11.036;2023-07-31T08:33:38;6.10;;;4.43;;
5058;SDS011;2548;52.050;11.036;2023-07-31T08:36:07;12.03;;;4.30;;
5058;SDS011;2548;52.050;11.036;2023-07-31T08:38:34;5.22;;;4.25;;
5058;SDS011;2548;52.050;11.036;2023-07-31T08:41:02;13.30;;;4.03;;
5058;SDS011;2548;52.050;11.036;2023-07-31T08:43:30;5.60;;;3.97;;
5058;SDS011;2548;52.050;11.036;2023-07-31T08:45:59;6.00;;;4.43;;
5058;SDS011;2548;52.050;11.036;2023-07-31T08:48:27;6.90;;;4.80;;
5058;SDS011;2548;52.050;11.036;2023-07-31T08:50:57;6.00;;;4.00;;
5058;SDS011;2548;52.050;11.036;2023-07-31T08:53:25;7.50;;;3.90;;
5058;SDS011;2548;52.050;11.036;2023-07-31T08:55:52;12.33;;;3.93;;
5058;SDS011;2548;52.050;11.036;2023-07-31T08:58:20;4.67;;;4.27;;
5058;SDS011;2548;52.050;11.036;2023-07-31T09:00:48;6.60;;;3.90;;
5058;SDS011;2548;52.050;11.036;2023-07-31T09:03:18;5.50;;;3.60;;
5058;SDS011;2548;52.050;11.036;2023-07-31T09:05:46;8.30;;;3.80;;
5058;SDS011;2548;52.050;11.036;2023-07-31T09:08:17;4.40;;;3.37;;
5058;SDS011;2548;52.050;11.036;2023-07-31T09:10:47;7.32;;;4.15;;
5058;SDS011;2548;52.050;11.036;2023-07-31T09:13:15;9.15;;;3.85;;
5058;SDS011;2548;52.050;11.036;2023-07-31T09:15:45;9.02;;;4.30;;
5058;SDS011;2548;52.050;11.036;2023-07-31T09:18:13;6.33;;;4.00;;
5058;SDS011;2548;52.050;11.036;2023-07-31T09:20:44;11.38;;;3.90;;
5058;SDS011;2548;52.050;11.036;2023-07-31T09:23:12;12.93;;;4.57;;
5058;SDS011;2548;52.050;11.036;2023-07-31T09:25:44;5.05;;;3.15;;
5058;SDS011;2548;52.050;11.036;2023-07-31T09:28:12;4.30;;;3.78;;
5058;SDS011;2548;52.050;11.036;2023-07-31T09:30:44;10.70;;;3.57;;
5058;SDS011;2548;52.050;11.036;2023-07-31T09:33:13;6.30;;;4.10;;
5058;SDS011;2548;52.050;11.036;2023-07-31T09:35:41;8.43;;;4.17;;
5058;SDS011;2548;52.050;11.036;2023-07-31T09:38:09;4.20;;;3.50;;
5058;SDS011;2548;52.050;11.036;2023-07-31T09:40:39;6.57;;;4.30;;
5058;SDS011;2548;52.050;11.036;2023-07-31T09:43:10;9.20;;;4.00;;
5058;SDS011;2548;52.050;11.036;2023-07-31T09:45:39;4.83;;;3.77;;
5058;SDS011;2548;52.050;11.036;2023-07-31T09:48:08;6.40;;;3.90;;
5058;SDS011;2548;52.050;11.036;2023-07-31T09:50:36;3.00;;;2.80;;
5058;SDS011;2548;52.050;11.036;2023-07-31T09:53:06;9.67;;;3.97;;
5058;SDS011;2548;52.050;11.036;2023-07-31T09:55:34;4.47;;;3.87;;
5058;SDS011;2548;52.050;11.036;2023-07-31T09:58:02;5.87;;;3.83;;
5058;SDS011;2548;52.050;11.036;2023-07-31T10:00:33;7.63;;;4.03;;
5058;SDS011;2548;52.050;11.036;2023-07-31T10:03:01;5.40;;;3.50;;
5058;SDS011;2548;52.050;11.036;2023-07-31T10:05:35;6.77;;;3.30;;
5058;SDS011;2548;52.050;11.036;2023-07-31T10:08:04;3.47;;;2.53;;
5058;SDS011;2548;52.050;11.036;2023-07-31T10:10:34;4.20;;;3.07;;
5058;SDS011;2548;52.050;11.036;2023-07-31T10:13:03;2.70;;;2.17;;
5058;SDS011;2548;52.050;11.036;2023-07-31T10:15:33;6.00;;;2.83;;
5058;SDS011;2548;52.050;11.036;2023-07-31T10:18:02;1.80;;;1.70;;
5058;SDS011;2548;52.050;11.036;2023-07-31T10:20:33;2.07;;;1.97;;
5058;SDS011;2548;52.050;11.036;2023-07-31T10:23:00;2.60;;;1.97;;
5058;SDS011;2548;52.050;11.036;2023-07-31T10:25:28;3.57;;;2.50;;
5058;SDS011;2548;52.050;11.036;2023-07-31T10:27:56;2.80;;;2.53;;
5058;SDS011;2548;52.050;11.036;2023-07-31T10:30:26;1.97;;;1.87;;
5058;SDS011;2548;52.050;11.036;2023-07-31T10:32:57;4.47;;;2.60;;
5058;SDS011;2548;52.050;11.036;2023-07-31T10:35:26;2.50;;;2.40;;
5058;SDS011;2548;52.050;11.036;2023-07-31T10:37:54;4.20;;;3.00;;
5058;SDS011;2548;52.050;11.036;2023-07-31T10:40:24;4.90;;;2.77;;
5058;SDS011;2548;52.050;11.036;2023-07-31T10:42:53;5.60;;;2.70;;
5058;SDS011;2548;52.050;11.036;2023-07-31T10:45:23;3.40;;;2.70;;
5058;SDS011;2548;52.050;11.036;2023-07-31T10:47:59;6.67;;;2.30;;
5058;SDS011;2548;52.050;11.036;2023-07-31T10:50:27;5.77;;;3.33;;
5058;SDS011;2548;52.050;11.036;2023-07-31T10:52:58;2.20;;;2.10;;
5058;SDS011;2548;52.050;11.036;2023-07-31T10:55:28;7.87;;;2.30;;
5058;SDS011;2548;52.050;11.036;2023-07-31T10:57:58;5.87;;;2.50;;
5058;SDS011;2548;52.050;11.036;2023-07-31T11:00:32;3.63;;;2.20;;
5058;SDS011;2548;52.050;11.036;2023-07-31T11:03:02;2.43;;;2.33;;
5058;SDS011;2548;52.050;11.036;2023-07-31T11:05:47;13.90;;;3.00;;
5058;SDS011;2548;52.050;11.036;2023-07-31T11:08:17;2.50;;;2.30;;
5058;SDS011;2548;52.050;11.036;2023-07-31T11:10:46;11.50;;;2.50;;
5058;SDS011;2548;52.050;11.036;2023-07-31T11:13:14;7.33;;;2.40;;
5058;SDS011;2548;52.050;11.036;2023-07-31T11:15:42;2.63;;;2.43;;
5058;SDS011;2548;52.050;11.036;2023-07-31T11:18:11;3.10;;;2.37;;
5058;SDS011;2548;52.050;11.036;2023-07-31T11:20:38;2.70;;;2.50;;
5058;SDS011;2548;52.050;11.036;2023-07-31T11:23:07;2.73;;;2.53;;
5058;SDS011;2548;52.050;11.036;2023-07-31T11:25:36;4.67;;;2.93;;
5058;SDS011;2548;52.050;11.036;2023-07-31T11:28:06;5.97;;;2.50;;
5058;SDS011;2548;52.050;11.036;2023-07-31T11:30:35;2.60;;;2.50;;
5058;SDS011;2548;52.050;11.036;2023-07-31T11:33:03;2.40;;;2.30;;
5058;SDS011;2548;52.050;11.036;2023-07-31T11:35:34;3.20;;;3.00;;
5058;SDS011;2548;52.050;11.036;2023-07-31T11:38:08;2.83;;;2.60;;
5058;SDS011;2548;52.050;11.036;2023-07-31T11:40:40;2.17;;;2.07;;
5058;SDS011;2548;52.050;11.036;2023-07-31T11:43:08;2.30;;;2.17;;
5058;SDS011;2548;52.050;11.036;2023-07-31T11:45:37;2.53;;;2.33;;
5058;SDS011;2548;52.050;11.036;2023-07-31T11:48:06;7.70;;;2.50;;
5058;SDS011;2548;52.050;11.036;2023-07-31T11:50:38;2.10;;;1.90;;
5058;SDS011;2548;52.050;11.036;2023-07-31T11:53:07;2.43;;;2.20;;
5058;SDS011;2548;52.050;11.036;2023-07-31T11:55:35;2.90;;;2.33;;
5058;SDS011;2548;52.050;11.036;2023-07-31T11:58:03;2.80;;;2.60;;
5058;SDS011;2548;52.050;11.036;2023-07-31T12:00:30;3.13;;;1.90;;
5058;SDS011;2548;52.050;11.036;2023-07-31T12:02:58;2.37;;;2.23;;
5058;SDS011;2548;52.050;11.036;2023-07-31T12:05:26;3.40;;;2.23;;
5058;SDS011;2548;52.050;11.036;2023-07-31T12:07:55;4.87;;;2.20;;
5058;SDS011;2548;52.050;11.036;2023-07-31T12:10:28;2.53;;;2.27;;
5058;SDS011;2548;52.050;11.036;2023-07-31T12:12:57;2.00;;;1.83;;
5058;SDS011;2548;52.050;11.036;2023-07-31T12:15:33;3.83;;;2.60;;
5058;SDS011;2548;52.050;11.036;2023-07-31T12:18:03;4.63;;;2.53;;
5058;SDS011;2548;52.050;11.036;2023-07-31T12:20:32;2.20;;;2.00;;
5058;SDS011;2548;52.050;11.036;2023-07-31T12:23:01;2.53;;;2.10;;
5058;SDS011;2548;52.050;11.036;2023-07-31T12:25:30;2.80;;;2.60;;
5058;SDS011;2548;52.050;11.036;2023-07-31T12:28:03;2.40;;;2.20;;
5058;SDS011;2548;52.050;11.036;2023-07-31T12:30:32;2.57;;;2.47;;
5058;SDS011;2548;52.050;11.036;2023-07-31T12:33:04;2.00;;;1.90;;
5058;SDS011;2548;52.050;11.036;2023-07-31T12:35:36;2.50;;;2.30;;
5058;SDS011;2548;52.050;11.036;2023-07-31T12:38:05;2.70;;;2.43;;
5058;SDS011;2548;52.050;11.036;2023-07-31T12:40:33;3.43;;;2.27;;
5058;SDS011;2548;52.050;11.036;2023-07-31T12:43:01;2.73;;;2.20;;
5058;SDS011;2548;52.050;11.036;2023-07-31T12:45:29;4.23;;;2.67;;
5058;SDS011;2548;52.050;11.036;2023-07-31T12:47:57;3.53;;;2.73;;
5058;SDS011;2548;52.050;11.036;2023-07-31T12:50:25;2.90;;;2.67;;
5058;SDS011;2548;52.050;11.036;2023-07-31T12:52:53;3.30;;;3.10;;
5058;SDS011;2548;52.050;11.036;2023-07-31T12:55:22;11.03;;;2.60;;
5058;SDS011;2548;52.050;11.036;2023-07-31T12:57:50;2.83;;;2.03;;
5058;SDS011;2548;52.050;11.036;2023-07-31T13:00:18;3.77;;;3.00;;
5058;SDS011;2548;52.050;11.036;2023-07-31T13:02:45;2.83;;;2.63;;
5058;SDS011;2548;52.050;11.036;2023-07-31T13:05:13;2.60;;;2.40;;
5058;SDS011;2548;52.050;11.036;2023-07-31T13:07:40;2.73;;;2.57;;
5058;SDS011;2548;52.050;11.036;2023-07-31T13:10:08;4.20;;;2.40;;
5058;SDS011;2548;52.050;11.036;2023-07-31T13:12:37;2.10;;;1.97;;
5058;SDS011;2548;52.050;11.036;2023-07-31T13:15:05;4.60;;;2.50;;
5058;SDS011;2548;52.050;11.036;2023-07-31T13:17:33;2.63;;;2.13;;
5058;SDS011;2548;52.050;11.036;2023-07-31T13:20:01;1.97;;;1.87;;
5058;SDS011;2548;52.050;11.036;2023-07-31T13:22:30;3.00;;;2.10;;
5058;SDS011;2548;52.050;11.036;2023-07-31T13:24:58;2.40;;;1.80;;
5058;SDS011;2548;52.050;11.036;2023-07-31T13:27:25;2.87;;;1.73;;
5058;SDS011;2548;52.050;11.036;2023-07-31T13:29:54;2.20;;;2.10;;
5058;SDS011;2548;52.050;11.036;2023-07-31T13:32:21;2.60;;;2.10;;
5058;SDS011;2548;52.050;11.036;2023-07-31T13:34:49;2.23;;;1.53;;
5058;SDS011;2548;52.050;11.036;2023-07-31T13:37:17;2.70;;;1.63;;
5058;SDS011;2548;52.050;11.036;2023-07-31T13:39:44;2.57;;;2.17;;
5058;SDS011;2548;52.050;11.036;2023-07-31T13:42:11;2.37;;;2.00;;
5058;SDS011;2548;52.050;11.036;2023-07-31T13:44:39;2.20;;;2.00;;
5058;SDS011;2548;52.050;11.036;2023-07-31T13:47:09;5.67;;;2.17;;
5058;SDS011;2548;52.050;11.036;2023-07-31T13:49:37;4.10;;;1.87;;
5058;SDS011;2548;52.050;11.036;2023-07-31T13:52:04;3.80;;;1.90;;
5058;SDS011;2548;52.050;11.036;2023-07-31T13:54:32;2.20;;;1.67;;
5058;SDS011;2548;52.050;11.036;2023-07-31T13:57:00;1.70;;;1.60;;
5058;SDS011;2548;52.050;11.036;2023-07-31T13:59:27;1.40;;;1.30;;
5058;SDS011;2548;52.050;11.036;2023-07-31T14:01:55;1.50;;;1.40;;
5058;SDS011;2548;52.050;11.036;2023-07-31T14:04:24;1.83;;;1.43;;
5058;SDS011;2548;52.050;11.036;2023-07-31T14:06:51;4.00;;;1.63;;
5058;SDS011;2548;52.050;11.036;2023-07-31T14:09:19;1.30;;;1.10;;
5058;SDS011;2548;52.050;11.036;2023-07-31T14:11:46;2.10;;;1.40;;
5058;SDS011;2548;52.050;11.036;2023-07-31T14:14:14;3.30;;;1.43;;
5058;SDS011;2548;52.050;11.036;2023-07-31T14:16:41;1.23;;;1.13;;
5058;SDS011;2548;52.050;11.036;2023-07-31T14:19:08;3.73;;;1.30;;
5058;SDS011;2548;52.050;11.036;2023-07-31T14:21:37;2.20;;;1.13;;
5058;SDS011;2548;52.050;11.036;2023-07-31T14:24:05;1.47;;;1.30;;
5058;SDS011;2548;52.050;11.036;2023-07-31T14:26:32;1.30;;;1.20;;
5058;SDS011;2548;52.050;11.036;2023-07-31T14:28:59;1.40;;;1.30;;
5058;SDS011;2548;52.050;11.036;2023-07-31T14:31:27;1.30;;;1.20;;
5058;SDS011;2548;52.050;11.036;2023-07-31T14:33:55;4.00;;;1.10;;
5058;SDS011;2548;52.050;11.036;2023-07-31T14:36:22;1.30;;;1.20;;
5058;SDS011;2548;52.050;11.036;2023-07-31T14:38:51;2.30;;;0.90;;
5058;SDS011;2548;52.050;11.036;2023-07-31T14:41:19;1.20;;;1.10;;
5058;SDS011;2548;52.050;11.036;2023-07-31T14:43:46;2.30;;;1.27;;
5058;SDS011;2548;52.050;11.036;2023-07-31T14:46:14;2.10;;;1.10;;
5058;SDS011;2548;52.050;11.036;2023-07-31T14:48:41;1.00;;;0.90;;
5058;SDS011;2548;52.050;11.036;2023-07-31T14:51:09;1.60;;;1.07;;
5058;SDS011;2548;52.050;11.036;2023-07-31T14:53:36;1.40;;;1.30;;
5058;SDS011;2548;52.050;11.036;2023-07-31T14:56:05;0.73;;;0.73;;
5058;SDS011;2548;52.050;11.036;2023-07-31T14:58:32;2.70;;;1.13;;
5058;SDS011;2548;52.050;11.036;2023-07-31T15:01:00;1.40;;;1.30;;
5058;SDS011;2548;52.050;11.036;2023-07-31T15:03:27;1.50;;;1.40;;
5058;SDS011;2548;52.050;11.036;2023-07-31T15:05:55;1.63;;;1.20;;
5058;SDS011;2548;52.050;11.036;2023-07-31T15:08:22;5.40;;;1.17;;